Time;durP1;ratioP1;P1;durP2;ratioP2;P2;SDS_P1;SDS_P2;PMS_P1;PMS_P2;Temp;Humidity;BMP_temperature;BMP_pressure;BME280_temperature;BME280_humidity;BME280_pressure;Samples;Min_cycle;Max_cycle;Signal;HPM_P1;HPM_P2
2022/03/22 00:00:45;;;;;;;15.90;10.50;;;7.90;46.60;;;;;;5010933;28;20026;-63
2022/03/22 00:03:11;;;;;;;19.98;10.20;;;7.90;46.60;;;;;;5008625;28;20037;-63
2022/03/22 00:05:40;;;;;;;18.92;11.55;;;7.90;46.70;;;;;;5011242;28;20124;-63
2022/03/22 00:08:07;;;;;;;18.10;10.70;;;7.80;46.80;;;;;;5003248;28;20027;-64
2022/03/22 00:10:32;;;;;;;19.52;11.07;;;7.90;46.90;;;;;;5005963;28;20038;-64
2022/03/22 00:12:58;;;;;;;21.02;10.77;;;7.90;47.00;;;;;;4992143;28;20105;-64
2022/03/22 00:15:24;;;;;;;16.15;10.88;;;7.80;47.10;;;;;;4998979;28;20073;-64
2022/03/22 00:17:50;;;;;;;19.30;11.00;;;7.80;47.20;;;;;;4995539;28;20584;-64
2022/03/22 00:20:16;;;;;;;19.02;10.32;;;7.80;47.30;;;;;;5006217;28;20092;-63
2022/03/22 00:22:42;;;;;;;17.70;9.98;;;7.70;47.30;;;;;;5005110;28;20531;-63
2022/03/22 00:25:09;;;;;;;17.63;10.70;;;7.70;47.40;;;;;;5009456;28;20030;-63
2022/03/22 00:30:24;;;;;;;19.80;11.82;;;7.70;47.60;;;;;;5009553;28;20536;-63
2022/03/22 00:32:54;;;;;;;19.05;11.05;;;7.70;47.50;;;;;;5005791;28;20034;-63
2022/03/22 00:35:22;;;;;;;17.10;10.52;;;7.60;47.50;;;;;;4991426;28;20038;-63
2022/03/22 00:37:50;;;;;;;17.92;10.35;;;7.60;47.60;;;;;;4991072;28;20482;-62
2022/03/22 00:40:17;;;;;;;17.63;10.60;;;7.60;47.60;;;;;;4991211;28;20097;-63
2022/03/22 00:42:46;;;;;;;15.52;10.80;;;7.60;47.70;;;;;;5005819;28;20444;-63
2022/03/22 00:45:16;;;;;;;19.95;10.50;;;7.60;48.30;;;;;;5011527;28;20080;-63
2022/03/22 00:47:43;;;;;;;15.73;10.30;;;7.60;47.90;;;;;;5013424;28;20041;-63
2022/03/22 00:50:08;;;;;;;20.85;10.20;;;7.50;48.10;;;;;;5013692;28;20026;-63
2022/03/22 00:52:35;;;;;;;16.58;10.73;;;7.50;48.00;;;;;;5001891;28;20452;-63
2022/03/22 00:55:02;;;;;;;17.30;9.73;;;7.50;48.20;;;;;;5009623;28;20038;-63
2022/03/22 00:57:27;;;;;;;17.73;10.40;;;7.40;48.20;;;;;;5013987;28;20026;-63
2022/03/22 01:00:04;;;;;;;18.20;12.07;;;7.40;48.20;;;;;;5013121;28;20038;-63
2022/03/22 01:02:35;;;;;;;20.38;10.65;;;7.40;48.30;;;;;;5003543;28;20165;-63
2022/03/22 01:05:07;;;;;;;18.15;10.23;;;7.40;48.50;;;;;;4994847;28;20472;-64
2022/03/22 01:07:33;;;;;;;16.50;10.57;;;7.30;48.50;;;;;;5014669;28;20032;-64
2022/03/22 01:10:00;;;;;;;21.50;11.65;;;7.30;48.50;;;;;;5002649;28;20038;-64
2022/03/22 01:12:26;;;;;;;18.33;10.65;;;7.30;48.60;;;;;;5001568;28;20117;-64
2022/03/22 01:14:52;;;;;;;14.68;10.05;;;7.20;48.60;;;;;;5008421;28;20117;-64
2022/03/22 01:17:19;;;;;;;20.05;10.77;;;7.20;48.70;;;;;;5013995;28;20030;-64
2022/03/22 01:19:46;;;;;;;16.88;11.13;;;7.20;48.80;;;;;;5013398;28;20041;-64
2022/03/22 01:22:11;;;;;;;17.17;10.48;;;7.20;48.90;;;;;;5012747;28;20397;-64
2022/03/22 01:24:37;;;;;;;18.10;11.38;;;7.10;48.90;;;;;;5000944;28;20032;-64
2022/03/22 01:27:02;;;;;;;19.35;11.35;;;7.20;49.10;;;;;;5009389;28;20022;-64
2022/03/22 01:29:28;;;;;;;16.85;10.88;;;7.20;49.10;;;;;;5012621;28;20116;-64
2022/03/22 01:31:55;;;;;;;17.17;11.15;;;7.10;49.10;;;;;;5008976;28;20018;-64
2022/03/22 01:34:20;;;;;;;18.55;11.07;;;7.10;49.20;;;;;;4998094;28;20085;-64
2022/03/22 01:36:46;;;;;;;18.67;11.30;;;7.10;49.30;;;;;;4993793;28;20053;-63
2022/03/22 01:39:11;;;;;;;18.42;11.73;;;7.10;49.40;;;;;;5001974;28;20110;-64
2022/03/22 01:41:37;;;;;;;19.63;11.85;;;7.10;49.40;;;;;;5012377;28;20053;-63
2022/03/22 01:44:03;;;;;;;17.45;10.77;;;7.10;49.50;;;;;;5006332;28;20026;-64
2022/03/22 01:46:29;;;;;;;19.58;11.80;;;7.00;49.60;;;;;;4997740;28;20054;-63
2022/03/22 01:48:55;;;;;;;20.40;11.85;;;7.00;49.60;;;;;;5003672;28;20452;-64
2022/03/22 01:51:21;;;;;;;18.02;10.43;;;6.90;49.60;;;;;;5013525;28;20519;-64
2022/03/22 01:53:48;;;;;;;16.83;11.57;;;6.90;49.80;;;;;;5012100;28;20049;-63
2022/03/22 01:56:14;;;;;;;19.92;10.73;;;6.90;49.90;;;;;;5002749;28;20046;-63
2022/03/22 01:58:40;;;;;;;16.60;11.93;;;6.90;50.00;;;;;;4998155;28;20414;-64
2022/03/22 02:07:14;;;;;;;18.23;11.07;;;6.80;50.00;;;;;;4995488;28;20030;-64
2022/03/22 02:09:40;;;;;;;18.25;10.60;;;6.70;50.10;;;;;;5011151;28;20524;-63
2022/03/22 02:12:06;;;;;;;20.10;11.95;;;6.70;50.20;;;;;;5009030;28;20057;-63
2022/03/22 02:14:32;;;;;;;17.27;11.18;;;6.70;50.30;;;;;;5012740;28;20490;-63
2022/03/22 02:16:57;;;;;;;19.30;11.35;;;6.60;50.30;;;;;;5007720;28;20065;-63
2022/03/22 02:19:23;;;;;;;18.30;11.05;;;6.60;50.40;;;;;;5012001;28;20033;-64
2022/03/22 02:21:56;;;;;;;17.38;11.15;;;6.60;50.50;;;;;;5002105;28;20128;-63
2022/03/22 02:24:22;;;;;;;18.95;11.60;;;6.60;50.70;;;;;;5002022;28;20041;-63
2022/03/22 02:26:47;;;;;;;18.77;11.35;;;6.50;50.60;;;;;;5008519;28;20067;-63
2022/03/22 02:29:13;;;;;;;17.58;10.73;;;6.60;50.70;;;;;;5013149;28;20421;-63
2022/03/22 02:31:38;;;;;;;20.23;12.00;;;6.50;51.00;;;;;;5004710;28;20045;-63
2022/03/22 02:34:04;;;;;;;17.63;10.65;;;6.40;50.80;;;;;;4992971;28;20569;-63
2022/03/22 02:36:29;;;;;;;20.20;11.68;;;6.40;50.90;;;;;;4995449;28;20061;-64
2022/03/22 02:38:55;;;;;;;20.55;11.45;;;6.40;51.00;;;;;;4992753;28;20053;-64
2022/03/22 02:41:22;;;;;;;20.10;11.88;;;6.40;51.10;;;;;;5005119;28;20030;-64
2022/03/22 02:43:49;;;;;;;17.98;10.60;;;6.30;51.30;;;;;;5012143;28;20117;-63
2022/03/22 02:46:14;;;;;;;19.17;11.85;;;6.30;51.30;;;;;;5004707;28;20029;-63
2022/03/22 02:48:41;;;;;;;19.20;11.30;;;6.20;51.30;;;;;;5011153;28;20113;-63
2022/03/22 02:51:07;;;;;;;16.80;11.15;;;6.20;51.50;;;;;;5004333;28;20026;-63
2022/03/22 02:53:33;;;;;;;20.08;11.57;;;6.20;51.50;;;;;;5011251;28;20045;-64
2022/03/22 02:55:58;;;;;;;20.45;12.57;;;6.20;51.70;;;;;;5004571;28;20073;-64
2022/03/22 02:58:24;;;;;;;21.92;12.13;;;6.10;51.80;;;;;;5004874;28;20474;-63
2022/03/22 03:00:49;;;;;;;19.85;11.80;;;6.10;51.90;;;;;;4993234;28;20091;-63
2022/03/22 03:03:15;;;;;;;20.60;11.63;;;6.00;52.00;;;;;;4992969;28;20030;-63
2022/03/22 03:05:40;;;;;;;19.63;10.88;;;6.00;52.10;;;;;;4992626;28;20046;-63
2022/03/22 03:08:06;;;;;;;22.67;12.00;;;6.00;52.20;;;;;;5009963;28;20037;-63
2022/03/22 03:10:32;;;;;;;18.80;11.95;;;5.90;52.30;;;;;;5009703;28;20080;-63
2022/03/22 03:13:03;;;;;;;19.20;10.70;;;5.90;52.40;;;;;;4996771;28;20481;-63
2022/03/22 03:15:29;;;;;;;19.23;11.13;;;5.90;52.60;;;;;;5011641;28;20147;-62
2022/03/22 03:17:54;;;;;;;19.35;11.60;;;5.90;52.70;;;;;;4993300;28;20504;-63
2022/03/22 03:20:20;;;;;;;19.77;11.85;;;5.90;52.80;;;;;;4993697;28;20033;-63
2022/03/22 03:22:45;;;;;;;21.27;11.82;;;5.80;53.30;;;;;;5009615;28;20113;-63
2022/03/22 03:25:11;;;;;;;18.02;11.30;;;5.80;52.90;;;;;;5011996;28;20026;-63
2022/03/22 03:27:37;;;;;;;19.40;11.23;;;5.80;53.10;;;;;;5009766;28;20034;-63
2022/03/22 03:30:04;;;;;;;18.42;11.18;;;5.70;53.20;;;;;;5011933;28;20029;-64
2022/03/22 03:32:30;;;;;;;18.50;11.10;;;5.70;53.20;;;;;;5009749;28;20025;-63
2022/03/22 03:34:56;;;;;;;21.25;11.80;;;5.70;53.20;;;;;;5011676;28;20049;-63
2022/03/22 03:37:27;;;;;;;19.75;11.95;;;5.70;53.30;;;;;;4999233;28;20038;-63
2022/03/22 03:39:53;;;;;;;20.02;11.80;;;5.60;53.50;;;;;;5001824;28;20076;-63
2022/03/22 03:42:18;;;;;;;19.50;11.82;;;5.60;53.50;;;;;;5010781;28;20435;-64
2022/03/22 03:47:28;;;;;;;19.65;11.32;;;5.60;53.60;;;;;;4995827;28;20030;-63
2022/03/22 03:49:58;;;;;;;18.92;11.52;;;5.50;53.60;;;;;;4993224;28;20514;-63
2022/03/22 03:52:26;;;;;;;20.73;12.90;;;5.50;53.80;;;;;;5002061;28;20117;-64
2022/03/22 03:54:52;;;;;;;19.60;12.23;;;5.50;53.90;;;;;;4990597;28;20092;-63
2022/03/22 03:57:18;;;;;;;17.23;11.27;;;5.40;53.90;;;;;;5005275;28;20124;-63
2022/03/22 03:59:44;;;;;;;21.15;11.70;;;5.50;54.20;;;;;;5011235;28;20493;-63
2022/03/22 04:02:11;;;;;;;20.02;11.43;;;5.40;54.20;;;;;;5005122;28;20018;-64
2022/03/22 04:04:38;;;;;;;20.60;12.35;;;5.30;54.30;;;;;;4991635;28;20066;-63
2022/03/22 04:07:05;;;;;;;20.45;12.25;;;5.30;54.40;;;;;;5011048;28;20034;-63
2022/03/22 04:09:35;;;;;;;20.15;11.73;;;5.30;54.50;;;;;;5010566;28;20050;-64
2022/03/22 04:12:01;;;;;;;22.98;12.88;;;5.20;54.70;;;;;;4998740;28;20034;-63
2022/03/22 04:14:27;;;;;;;20.83;12.15;;;5.20;54.70;;;;;;4990234;28;20084;-64
2022/03/22 04:16:53;;;;;;;17.73;11.05;;;5.20;54.80;;;;;;4998154;28;20398;-63
2022/03/22 04:19:18;;;;;;;20.80;11.77;;;5.20;54.90;;;;;;5002130;28;20018;-64
2022/03/22 04:21:45;;;;;;;20.85;12.27;;;5.10;55.00;;;;;;5009460;28;20458;-63
2022/03/22 04:24:11;;;;;;;20.20;12.30;;;5.10;55.00;;;;;;5011955;28;20018;-63
2022/03/22 04:26:45;;;;;;;20.38;11.90;;;5.00;55.20;;;;;;5006125;28;20068;-63
2022/03/22 04:34:41;;;;;;;19.67;12.00;;;5.00;55.40;;;;;;4998270;28;20054;-64
2022/03/22 04:37:08;;;;;;;19.25;12.18;;;5.00;55.40;;;;;;4997729;28;20042;-63
2022/03/22 04:39:34;;;;;;;21.80;12.40;;;5.00;55.80;;;;;;4998270;28;20165;-63
2022/03/22 04:42:00;;;;;;;20.17;13.15;;;4.90;55.70;;;;;;5009012;28;20116;-63
2022/03/22 04:44:28;;;;;;;20.60;11.68;;;4.90;55.80;;;;;;5003091;28;20046;-63
2022/03/22 04:46:55;;;;;;;19.90;12.43;;;4.90;55.90;;;;;;4998373;28;20092;-63
2022/03/22 04:49:20;;;;;;;18.80;12.00;;;4.80;55.90;;;;;;5008305;28;20037;-63
2022/03/22 04:57:15;;;;;;;24.53;13.63;;;4.80;56.00;;;;;;5016863;28;20037;-63
2022/03/22 04:59:43;;;;;;;20.90;12.50;;;4.80;56.20;;;;;;5017744;28;20034;-63
2022/03/22 05:02:09;;;;;;;20.70;12.38;;;4.80;56.20;;;;;;5001721;28;20101;-63
2022/03/22 05:04:35;;;;;;;20.83;12.15;;;4.80;56.20;;;;;;5007206;28;20408;-62
2022/03/22 05:07:01;;;;;;;20.10;12.55;;;4.80;56.30;;;;;;5003707;28;20034;-63
2022/03/22 05:09:28;;;;;;;20.40;11.75;;;4.80;56.40;;;;;;4997781;28;20112;-63
2022/03/22 05:11:54;;;;;;;22.40;13.18;;;4.80;56.50;;;;;;5008229;28;20392;-63
2022/03/22 05:14:20;;;;;;;23.55;13.00;;;4.70;56.50;;;;;;5009983;28;20061;-63
2022/03/22 05:16:45;;;;;;;24.52;12.20;;;4.70;56.60;;;;;;5016293;28;20085;-64
2022/03/22 05:19:13;;;;;;;22.17;13.55;;;4.70;56.60;;;;;;5017326;28;20045;-64
2022/03/22 05:21:39;;;;;;;19.48;11.70;;;4.70;57.20;;;;;;5014575;28;20038;-64
2022/03/22 05:24:06;;;;;;;23.15;12.75;;;4.70;56.70;;;;;;5017022;28;20022;-64
2022/03/22 05:26:33;;;;;;;21.60;12.55;;;4.70;56.90;;;;;;5015569;28;20040;-64
2022/03/22 05:28:58;;;;;;;24.85;12.50;;;4.70;56.90;;;;;;5017049;28;20587;-63
2022/03/22 05:31:24;;;;;;;22.73;12.70;;;4.70;57.00;;;;;;5005889;28;20040;-63
2022/03/22 05:33:49;;;;;;;20.75;12.18;;;4.70;57.00;;;;;;4994166;28;20133;-64
2022/03/22 05:36:15;;;;;;;22.92;13.50;;;4.70;57.10;;;;;;5000018;28;20076;-62
2022/03/22 05:38:41;;;;;;;20.60;12.65;;;4.70;57.20;;;;;;5014773;28;20023;-63
2022/03/22 05:41:08;;;;;;;22.60;12.95;;;4.70;57.30;;;;;;4998238;28;20100;-64
2022/03/22 05:43:35;;;;;;;20.60;12.18;;;4.70;57.30;;;;;;4999528;28;20026;-63
2022/03/22 05:46:02;;;;;;;21.23;12.23;;;4.70;57.30;;;;;;5009332;28;20056;-64
2022/03/22 05:48:27;;;;;;;22.80;13.15;;;4.70;57.30;;;;;;5001491;28;20087;-64
2022/03/22 05:50:53;;;;;;;20.52;13.32;;;4.80;57.40;;;;;;5012468;28;20022;-62
2022/03/22 05:53:19;;;;;;;22.92;15.02;;;4.70;57.80;;;;;;5013168;28;20060;-63
2022/03/22 05:55:44;;;;;;;17.95;12.88;;;4.80;57.30;;;;;;5012443;28;20077;-63
2022/03/22 05:58:10;;;;;;;20.20;12.48;;;4.80;57.40;;;;;;5006498;28;20018;-63
2022/03/22 06:00:35;;;;;;;23.33;14.02;;;4.80;57.50;;;;;;4996485;28;20129;-63
2022/03/22 06:03:01;;;;;;;22.10;13.57;;;4.80;57.50;;;;;;5003918;28;20018;-63
2022/03/22 06:05:28;;;;;;;24.20;14.38;;;4.80;57.50;;;;;;5005775;28;20531;-64
2022/03/22 06:07:55;;;;;;;25.20;15.32;;;4.90;57.60;;;;;;4999079;28;20026;-63
2022/03/22 06:10:21;;;;;;;21.90;13.48;;;4.90;57.50;;;;;;5007580;28;20088;-63
2022/03/22 06:12:49;;;;;;;23.15;13.60;;;4.90;57.60;;;;;;5010098;28;20053;-64
2022/03/22 06:15:20;;;;;;;23.45;13.30;;;4.90;57.60;;;;;;5013196;28;20446;-64
2022/03/22 06:17:59;;;;;;;21.20;13.07;;;4.90;57.60;;;;;;5011848;28;20025;-63
2022/03/22 06:20:31;;;;;;;22.67;13.00;;;5.00;57.70;;;;;;5002856;28;20033;-64
2022/03/22 06:22:58;;;;;;;25.00;13.68;;;5.00;57.60;;;;;;5012181;28;20056;-63
2022/03/22 06:25:25;;;;;;;22.65;13.85;;;5.00;57.70;;;;;;5010780;28;20042;-64
2022/03/22 06:27:52;;;;;;;22.02;14.00;;;5.10;57.60;;;;;;5010944;28;20485;-65
2022/03/22 06:30:18;;;;;;;22.42;13.70;;;5.10;57.60;;;;;;5012875;28;20038;-64
2022/03/22 06:32:50;;;;;;;20.70;12.10;;;5.10;57.80;;;;;;4998896;28;20478;-64
2022/03/22 06:35:17;;;;;;;21.58;11.85;;;5.20;57.60;;;;;;5006295;28;20037;-66
2022/03/22 06:37:43;;;;;;;22.70;13.85;;;5.30;57.60;;;;;;4999722;28;20485;-66
2022/03/22 06:40:10;;;;;;;23.10;13.02;;;5.30;57.60;;;;;;5008013;28;20112;-64
2022/03/22 06:42:37;;;;;;;23.33;13.38;;;5.30;57.40;;;;;;5005925;28;20034;-64
2022/03/22 06:45:06;;;;;;;21.40;13.38;;;5.40;57.50;;;;;;5005135;28;20030;-64
2022/03/22 06:47:32;;;;;;;23.55;13.32;;;5.50;57.50;;;;;;4997253;28;20068;-64
2022/03/22 06:49:59;;;;;;;23.48;13.75;;;5.60;57.40;;;;;;5005031;28;20555;-65
2022/03/22 06:52:25;;;;;;;20.85;14.77;;;5.60;57.30;;;;;;4998399;28;20038;-64
2022/03/22 06:54:50;;;;;;;23.45;13.43;;;5.70;57.40;;;;;;5003702;28;20048;-64
2022/03/22 06:57:16;;;;;;;25.17;14.30;;;5.70;57.30;;;;;;5010650;28;20109;-63
2022/03/22 06:59:41;;;;;;;28.27;14.18;;;5.80;57.20;;;;;;5010272;28;20034;-65
2022/03/22 07:02:08;;;;;;;26.40;15.13;;;5.80;57.10;;;;;;5001246;28;20037;-64
2022/03/22 07:04:33;;;;;;;24.50;15.25;;;5.90;57.10;;;;;;4996221;28;20053;-64
2022/03/22 07:06:59;;;;;;;21.13;13.25;;;6.00;56.90;;;;;;5009061;28;20030;-63
2022/03/22 07:09:25;;;;;;;24.27;14.32;;;6.00;56.90;;;;;;5006952;28;20489;-65
2022/03/22 07:11:50;;;;;;;24.27;13.63;;;6.10;56.80;;;;;;5004435;28;20448;-65
2022/03/22 07:14:17;;;;;;;22.55;14.13;;;6.20;56.80;;;;;;5011620;28;20029;-65
2022/03/22 07:16:44;;;;;;;24.02;14.48;;;6.20;56.60;;;;;;5009640;28;20123;-65
2022/03/22 07:19:10;;;;;;;27.67;13.88;;;6.30;56.50;;;;;;5010351;28;20474;-65
2022/03/22 07:21:35;;;;;;;22.63;13.77;;;6.50;56.40;;;;;;5008524;28;20044;-65
2022/03/22 07:24:01;;;;;;;25.88;13.60;;;6.50;56.30;;;;;;5010422;28;20033;-65
2022/03/22 07:26:26;;;;;;;22.65;14.00;;;6.60;56.30;;;;;;5007441;28;20084;-64
2022/03/22 07:28:52;;;;;;;23.90;14.48;;;6.60;56.30;;;;;;4999036;28;20080;-65
2022/03/22 07:31:17;;;;;;;24.38;12.98;;;6.80;56.20;;;;;;5008010;28;20018;-64
2022/03/22 07:33:43;;;;;;;21.33;12.23;;;6.80;56.10;;;;;;5000467;28;20049;-65
2022/03/22 07:36:08;;;;;;;22.02;13.65;;;6.90;56.00;;;;;;5025046;28;20048;-65
2022/03/22 07:38:34;;;;;;;21.02;12.60;;;7.00;55.70;;;;;;5007202;28;20025;-65
2022/03/22 07:40:59;;;;;;;21.17;12.98;;;7.10;55.30;;;;;;5008889;28;20502;-65
2022/03/22 07:43:28;;;;;;;18.90;12.55;;;7.20;54.80;;;;;;5010686;28;20053;-66
2022/03/22 07:45:54;;;;;;;20.02;11.98;;;7.30;55.10;;;;;;4996588;28;20117;-63
2022/03/22 07:48:19;;;;;;;25.75;12.00;;;7.40;55.30;;;;;;4991681;28;20031;-64
2022/03/22 07:53:29;;;;;;;18.92;12.43;;;7.60;55.00;;;;;;5010940;28;20029;-64
2022/03/22 07:55:55;;;;;;;19.92;11.85;;;7.70;54.40;;;;;;5008838;28;20042;-64
2022/03/22 07:58:20;;;;;;;18.70;11.27;;;7.80;53.80;;;;;;5009874;28;20543;-64
2022/03/22 08:00:46;;;;;;;18.95;11.55;;;8.00;53.60;;;;;;5008400;28;20417;-64
2022/03/22 08:03:15;;;;;;;19.02;11.57;;;8.10;53.00;;;;;;5009807;28;20102;-64
2022/03/22 08:05:44;;;;;;;18.80;10.98;;;8.10;52.70;;;;;;4993163;28;20050;-64
2022/03/22 08:08:09;;;;;;;16.67;10.98;;;8.20;52.00;;;;;;5008575;28;20116;-64
2022/03/22 08:10:35;;;;;;;15.68;10.05;;;8.20;51.80;;;;;;5008871;28;20109;-65
2022/03/22 08:13:00;;;;;;;17.88;10.90;;;8.40;51.60;;;;;;5007150;28;20045;-64
2022/03/22 08:15:26;;;;;;;15.95;10.75;;;8.50;51.10;;;;;;5010510;28;20038;-63
2022/03/22 08:17:52;;;;;;;16.73;10.98;;;8.50;50.80;;;;;;5001492;28;20023;-64
2022/03/22 08:20:17;;;;;;;18.58;10.95;;;8.60;50.40;;;;;;4997180;28;20026;-65
2022/03/22 08:22:54;;;;;;;15.18;10.48;;;8.70;50.10;;;;;;5000291;28;20050;-64
2022/03/22 08:25:26;;;;;;;17.95;10.85;;;8.80;50.00;;;;;;4991493;28;20042;-64
2022/03/22 08:27:52;;;;;;;19.33;10.13;;;8.90;49.90;;;;;;5008341;28;20034;-64
2022/03/22 08:30:21;;;;;;;19.10;10.48;;;9.00;50.00;;;;;;5004793;28;20038;-63
2022/03/22 08:32:49;;;;;;;17.45;9.52;;;9.10;49.90;;;;;;5005509;28;20026;-65
2022/03/22 08:35:15;;;;;;;15.98;10.32;;;9.20;49.70;;;;;;5000654;28;20540;-64
2022/03/22 08:37:40;;;;;;;15.23;10.27;;;9.20;49.60;;;;;;4994594;28;20031;-63
2022/03/22 08:40:06;;;;;;;16.65;9.93;;;9.30;49.00;;;;;;5009860;28;20026;-62
2022/03/22 08:42:32;;;;;;;13.30;9.68;;;9.40;49.20;;;;;;5000620;28;20030;-65
2022/03/22 08:44:59;;;;;;;15.80;9.52;;;9.50;48.70;;;;;;5001753;28;20544;-64
2022/03/22 08:47:26;;;;;;;21.20;11.07;;;9.50;48.30;;;;;;5007569;28;20061;-63
2022/03/22 08:49:52;;;;;;;12.93;9.15;;;9.60;48.00;;;;;;4997060;28;20071;-63
2022/03/22 08:52:17;;;;;;;15.77;9.30;;;9.70;47.50;;;;;;4999979;28;20042;-63
2022/03/22 08:54:43;;;;;;;12.02;8.68;;;9.80;47.20;;;;;;4995804;28;20049;-63
2022/03/22 08:57:08;;;;;;;13.25;8.68;;;9.90;47.20;;;;;;4996734;28;20101;-64
2022/03/22 08:59:34;;;;;;;17.58;10.43;;;10.00;47.00;;;;;;4993237;28;20038;-64
2022/03/22 09:02:01;;;;;;;16.08;10.40;;;10.00;46.70;;;;;;5004652;28;20030;-63
2022/03/22 09:07:11;;;;;;;15.55;9.48;;;10.20;46.30;;;;;;4996288;28;20088;-64
2022/03/22 09:09:37;;;;;;;15.23;9.38;;;10.20;45.50;;;;;;5007644;28;20482;-64
2022/03/22 09:12:03;;;;;;;14.30;9.55;;;10.30;45.20;;;;;;4998983;28;20057;-64
2022/03/22 09:14:29;;;;;;;15.13;9.25;;;10.40;45.40;;;;;;5004403;28;20063;-63
2022/03/22 09:16:54;;;;;;;16.30;9.60;;;10.50;45.30;;;;;;5004340;28;20030;-63
2022/03/22 09:19:20;;;;;;;13.63;9.68;;;10.50;45.00;;;;;;5011621;28;20030;-64
2022/03/22 09:21:45;;;;;;;12.70;8.77;;;10.60;45.10;;;;;;5003122;28;20409;-64
2022/03/22 09:24:11;;;;;;;15.43;9.45;;;10.70;45.20;;;;;;4997700;28;20124;-63
2022/03/22 09:26:36;;;;;;;15.15;8.75;;;10.80;44.80;;;;;;5004408;28;20496;-64
2022/03/22 09:29:02;;;;;;;13.50;9.23;;;10.90;44.40;;;;;;5012123;28;20022;-64
2022/03/22 09:31:28;;;;;;;13.75;8.63;;;11.00;44.20;;;;;;5005462;28;20045;-64
2022/03/22 09:33:54;;;;;;;12.38;9.10;;;11.00;44.20;;;;;;5007414;28;20029;-64
2022/03/22 09:36:19;;;;;;;15.70;8.57;;;11.20;44.20;;;;;;5012235;28;20038;-64
2022/03/22 09:38:46;;;;;;;11.05;8.18;;;11.30;44.00;;;;;;5007312;28;20041;-64
2022/03/22 09:41:14;;;;;;;13.05;9.13;;;11.30;43.50;;;;;;4998281;28;20117;-64
2022/03/22 09:43:48;;;;;;;13.15;8.18;;;11.40;43.50;;;;;;5002554;28;20497;-64
2022/03/22 09:46:19;;;;;;;12.80;8.73;;;11.50;43.80;;;;;;5007150;28;20508;-64
2022/03/22 09:48:47;;;;;;;15.93;8.48;;;11.50;43.20;;;;;;5002706;28;20034;-64
2022/03/22 09:53:57;;;;;;;11.93;8.60;;;11.70;42.80;;;;;;5012519;28;20040;-64
2022/03/22 09:56:26;;;;;;;14.15;9.43;;;11.80;42.60;;;;;;5010897;28;20046;-64
2022/03/22 09:58:51;;;;;;;17.65;9.32;;;11.90;42.50;;;;;;5011443;28;20041;-64
2022/03/22 10:01:17;;;;;;;12.23;8.10;;;11.90;42.10;;;;;;5005734;28;20025;-64
2022/03/22 10:03:42;;;;;;;13.60;7.18;;;12.00;41.70;;;;;;5010051;28;20022;-64
2022/03/22 10:06:09;;;;;;;10.80;7.70;;;12.10;41.80;;;;;;5007957;28;20049;-65
2022/03/22 10:08:48;;;;;;;13.65;9.10;;;12.20;41.90;;;;;;5003494;28;20022;-64
2022/03/22 10:11:13;;;;;;;11.13;7.95;;;12.30;41.10;;;;;;4993777;28;20026;-64
2022/03/22 10:13:52;;;;;;;14.48;7.75;;;12.30;41.20;;;;;;5004164;28;20076;-64
2022/03/22 10:16:17;;;;;;;13.10;7.82;;;12.30;40.60;;;;;;5005897;28;20048;-63
2022/03/22 10:18:43;;;;;;;13.25;8.10;;;12.40;40.70;;;;;;5001730;28;20385;-63
2022/03/22 10:21:09;;;;;;;14.35;8.65;;;12.50;40.70;;;;;;5001251;28;20022;-62
2022/03/22 10:23:51;;;;;;;10.82;8.10;;;12.60;40.60;;;;;;5011864;28;20486;-63
2022/03/22 10:26:17;;;;;;;13.07;8.70;;;12.70;40.20;;;;;;5005909;28;20037;-63
2022/03/22 10:28:54;;;;;;;13.98;9.00;;;12.80;40.40;;;;;;4997917;28;20425;-63
2022/03/22 10:31:35;;;;;;;11.68;7.70;;;12.80;40.30;;;;;;5002037;28;20049;-63
2022/03/22 10:34:01;;;;;;;16.90;8.10;;;12.90;39.90;;;;;;5006107;28;20092;-63
2022/03/22 10:36:26;;;;;;;15.18;9.13;;;13.00;39.80;;;;;;5015509;28;20042;-63
2022/03/22 10:39:01;;;;;;;13.80;8.55;;;13.10;39.80;;;;;;4998474;28;20026;-63
2022/03/22 10:41:29;;;;;;;13.02;9.63;;;13.20;39.70;;;;;;5003507;28;20125;-63
2022/03/22 10:44:09;;;;;;;12.75;9.25;;;13.30;39.60;;;;;;5000795;28;20026;-62
2022/03/22 10:46:36;;;;;;;13.10;8.20;;;13.40;39.40;;;;;;5004317;28;20034;-63
2022/03/22 10:49:19;;;;;;;14.40;9.07;;;13.50;39.60;;;;;;5001695;28;20034;-63
2022/03/22 10:51:45;;;;;;;13.60;8.23;;;13.60;39.30;;;;;;5007753;28;20030;-62
2022/03/22 10:54:13;;;;;;;13.20;8.95;;;13.60;39.00;;;;;;5002755;28;20153;-63
2022/03/22 10:56:45;;;;;;;10.02;7.35;;;13.70;38.30;;;;;;5009589;28;20034;-63
2022/03/22 10:59:13;;;;;;;11.00;8.13;;;13.80;38.50;;;;;;5005053;28;20105;-63
2022/03/22 11:01:42;;;;;;;9.02;7.30;;;13.80;38.00;;;;;;5005641;28;20030;-63
2022/03/22 11:04:08;;;;;;;13.75;8.02;;;13.90;37.70;;;;;;5000711;28;20042;-63
2022/03/22 11:06:36;;;;;;;9.50;7.30;;;14.00;37.40;;;;;;5002762;28;20117;-63
2022/03/22 11:09:01;;;;;;;9.32;7.15;;;14.00;37.20;;;;;;5000723;28;20018;-64
2022/03/22 11:11:30;;;;;;;12.27;8.23;;;14.10;37.30;;;;;;5003673;28;20033;-64
2022/03/22 11:13:55;;;;;;;10.60;7.82;;;14.20;36.90;;;;;;5010779;28;20034;-63
2022/03/22 11:16:22;;;;;;;10.25;7.40;;;14.20;37.00;;;;;;5002059;28;20037;-63
2022/03/22 11:18:49;;;;;;;12.02;7.85;;;14.30;37.50;;;;;;5006354;28;20026;-64
2022/03/22 11:21:19;;;;;;;11.50;7.63;;;14.40;37.00;;;;;;5010116;28;20192;-64
2022/03/22 11:23:47;;;;;;;11.70;7.63;;;14.40;36.10;;;;;;5003986;28;20026;-64
2022/03/22 11:26:17;;;;;;;10.90;7.28;;;14.40;36.10;;;;;;5004642;28;20478;-66
2022/03/22 11:28:44;;;;;;;10.50;7.28;;;14.50;35.90;;;;;;4995556;28;20030;-63
2022/03/22 11:31:13;;;;;;;10.82;7.78;;;14.60;35.90;;;;;;4996040;28;20088;-63
2022/03/22 11:36:26;;;;;;;9.63;6.80;;;14.70;35.60;;;;;;4999769;28;20132;-64
2022/03/22 11:38:56;;;;;;;11.73;8.85;;;14.80;35.80;;;;;;4998682;28;20048;-64
2022/03/22 11:44:27;;;;;;;15.40;7.68;;;14.90;35.40;;;;;;4996499;28;20041;-64
2022/03/22 11:47:14;;;;;;;12.48;7.68;;;15.00;35.20;;;;;;5001652;28;20072;-64
2022/03/22 11:49:59;;;;;;;10.32;7.10;;;15.00;35.60;;;;;;4996057;28;20073;-63
2022/03/22 11:52:39;;;;;;;10.30;8.25;;;15.10;35.10;;;;;;5006862;28;20037;-64
2022/03/22 11:55:19;;;;;;;11.98;7.35;;;15.10;35.30;;;;;;4998305;28;20039;-63
2022/03/22 11:57:46;;;;;;;13.20;7.80;;;15.20;35.30;;;;;;5008469;28;20053;-64
2022/03/22 12:00:17;;;;;;;10.65;7.97;;;15.30;35.50;;;;;;5007148;28;20109;-62
2022/03/22 12:02:44;;;;;;;10.23;7.82;;;15.30;35.50;;;;;;5005906;28;20038;-63
2022/03/22 12:05:10;;;;;;;10.50;7.25;;;15.30;35.10;;;;;;4997462;28;20046;-64
2022/03/22 12:07:38;;;;;;;9.82;7.10;;;15.40;35.00;;;;;;5007831;28;20038;-64
2022/03/22 12:10:12;;;;;;;10.32;7.15;;;15.50;34.80;;;;;;5011351;28;20359;-64
2022/03/22 12:12:38;;;;;;;9.45;7.18;;;15.50;34.90;;;;;;5009814;28;20033;-64
2022/03/22 12:15:09;;;;;;;9.13;7.10;;;15.50;34.80;;;;;;5009839;28;20473;-63
2022/03/22 12:17:36;;;;;;;10.30;7.07;;;15.50;34.50;;;;;;5002265;28;20046;-63
2022/03/22 12:20:14;;;;;;;10.02;6.57;;;15.60;34.00;;;;;;5007439;28;20608;-63
2022/03/22 12:22:43;;;;;;;9.57;7.15;;;15.70;34.00;;;;;;5001262;28;20060;-64
2022/03/22 12:25:15;;;;;;;8.70;6.68;;;15.70;34.30;;;;;;5005662;28;20045;-63
2022/03/22 12:27:53;;;;;;;8.18;6.38;;;15.80;34.20;;;;;;4992448;28;20022;-63
2022/03/22 12:30:21;;;;;;;8.75;6.32;;;15.80;33.90;;;;;;5000279;28;20326;-63
2022/03/22 12:32:51;;;;;;;8.75;6.03;;;15.90;34.00;;;;;;5003429;28;20033;-63
2022/03/22 12:35:17;;;;;;;10.55;6.90;;;15.90;33.80;;;;;;5008805;28;20120;-62
2022/03/22 12:37:42;;;;;;;10.13;5.88;;;15.90;33.70;;;;;;4991485;28;20114;-63
2022/03/22 12:40:08;;;;;;;9.73;6.05;;;16.00;33.40;;;;;;5004726;28;20087;-63
2022/03/22 12:42:34;;;;;;;7.75;6.18;;;16.10;33.40;;;;;;5009612;28;20021;-63
2022/03/22 12:44:59;;;;;;;9.27;5.55;;;16.10;33.10;;;;;;5003714;28;20089;-63
2022/03/22 12:47:25;;;;;;;8.73;5.53;;;16.10;32.70;;;;;;5007249;28;20397;-63
2022/03/22 12:49:51;;;;;;;9.73;6.80;;;16.20;32.60;;;;;;5008840;28;20037;-63
2022/03/22 12:52:16;;;;;;;8.75;6.35;;;16.30;32.90;;;;;;5007507;28;20242;-63
2022/03/22 12:54:44;;;;;;;6.57;5.35;;;16.30;32.50;;;;;;5003029;28;20030;-63
2022/03/22 12:57:15;;;;;;;9.52;6.20;;;16.30;32.80;;;;;;5011881;28;20112;-63
2022/03/22 12:59:41;;;;;;;9.63;6.47;;;16.40;32.60;;;;;;5012970;28;20033;-63
2022/03/22 13:02:07;;;;;;;12.57;6.28;;;16.40;33.00;;;;;;5009309;28;20389;-63
2022/03/22 13:04:47;;;;;;;9.48;6.47;;;16.50;32.50;;;;;;5020967;28;20045;-63
2022/03/22 13:07:19;;;;;;;10.65;6.25;;;16.50;32.40;;;;;;5011806;28;20030;-64
2022/03/22 13:12:33;;;;;;;7.10;5.57;;;16.60;31.80;;;;;;5007944;28;20038;-63
2022/03/22 13:15:10;;;;;;;8.60;5.60;;;16.70;31.70;;;;;;5002932;28;20045;-63
2022/03/22 13:17:42;;;;;;;9.32;6.03;;;16.80;31.60;;;;;;5006934;28;20033;-63